createdAt,value
2022-09-24T00:01:39.169Z,9.20
2022-09-24T00:04:09.733Z,9.20
2022-09-24T00:06:41.360Z,9.20
2022-09-24T00:09:09.546Z,9.20
2022-09-24T00:11:36.638Z,9.10
2022-09-24T00:14:04.238Z,9.00
2022-09-24T00:16:34.736Z,9.00
2022-09-24T00:19:03.767Z,9.00
2022-09-24T00:21:32.236Z,8.90
2022-09-24T00:24:02.236Z,8.90
2022-09-24T00:26:48.600Z,8.90
2022-09-24T00:29:27.309Z,8.80
2022-09-24T00:31:54.255Z,8.80
2022-09-24T00:34:22.018Z,8.70
2022-09-24T00:36:48.908Z,8.70
2022-09-24T00:39:16.812Z,8.70
2022-09-24T00:41:47.204Z,8.70
2022-09-24T00:44:45.115Z,8.60
2022-09-24T00:47:33.494Z,8.60
2022-09-24T00:50:22.843Z,8.50
2022-09-24T00:53:05.936Z,8.50
2022-09-24T00:55:35.588Z,8.50
2022-09-24T00:58:06.073Z,8.50
2022-09-24T01:00:34.057Z,8.40
2022-09-24T01:03:06.539Z,8.40
2022-09-24T01:05:34.040Z,8.30
2022-09-24T01:08:01.415Z,8.20
2022-09-24T01:10:48.539Z,8.20
2022-09-24T01:13:55.785Z,8.20
2022-09-24T01:16:31.432Z,8.20
2022-09-24T01:19:29.151Z,8.10
2022-09-24T01:22:07.266Z,8.10
2022-09-24T01:24:56.539Z,8.10
2022-09-24T01:27:52.974Z,8.10
2022-09-24T01:30:20.213Z,8.10
2022-09-24T01:33:02.900Z,8.10
2022-09-24T01:35:42.027Z,8.00
2022-09-24T01:38:16.900Z,8.00
2022-09-24T01:40:46.878Z,8.00
2022-09-24T01:43:16.562Z,8.00
2022-09-24T01:45:44.096Z,8.00
2022-09-24T01:48:10.904Z,8.00
2022-09-24T01:50:51.322Z,8.00
2022-09-24T01:53:26.077Z,8.00
2022-09-24T01:56:16.379Z,8.00
2022-09-24T01:59:01.807Z,7.90
2022-09-24T02:01:38.657Z,8.00
2022-09-24T02:04:15.974Z,8.00
2022-09-24T02:06:57.986Z,8.00
2022-09-24T02:09:36.103Z,8.00
2022-09-24T02:12:11.755Z,8.00
2022-09-24T02:14:45.214Z,8.00
2022-09-24T02:17:13.717Z,7.90
2022-09-24T02:19:42.853Z,7.90
2022-09-24T02:22:13.072Z,7.90
2022-09-24T02:24:50.501Z,7.90
2022-09-24T02:27:18.577Z,7.90
2022-09-24T02:29:46.990Z,7.90
2022-09-24T02:32:18.746Z,7.90
2022-09-24T02:34:50.935Z,7.90
2022-09-24T02:37:18.548Z,7.80
2022-09-24T02:39:45.725Z,7.90
2022-09-24T02:42:15.338Z,7.80
2022-09-24T02:44:42.527Z,7.80
2022-09-24T02:47:09.760Z,7.80
2022-09-24T02:49:36.482Z,7.80
2022-09-24T02:52:03.361Z,7.80
2022-09-24T02:54:31.647Z,7.80
2022-09-24T02:56:59.079Z,7.80
2022-09-24T02:59:26.449Z,7.80
2022-09-24T03:01:53.296Z,7.80
2022-09-24T03:04:22.221Z,7.70
2022-09-24T03:06:48.935Z,7.70
2022-09-24T03:09:16.507Z,7.70
2022-09-24T03:11:44.097Z,7.70
2022-09-24T03:14:10.972Z,7.70
2022-09-24T03:16:37.791Z,7.70
2022-09-24T03:19:06.742Z,7.70
2022-09-24T03:21:34.042Z,7.70
2022-09-24T03:24:01.638Z,7.70
2022-09-24T03:26:28.736Z,7.70
2022-09-24T03:28:55.541Z,7.70
2022-09-24T03:31:24.321Z,7.70
2022-09-24T03:33:51.247Z,7.70
2022-09-24T03:36:21.391Z,7.70
2022-09-24T03:38:50.736Z,7.70
2022-09-24T03:41:18.376Z,7.70
2022-09-24T03:43:45.200Z,7.80
2022-09-24T03:46:13.506Z,7.80
2022-09-24T03:48:41.050Z,7.80
2022-09-24T03:51:11.582Z,7.80
2022-09-24T03:53:38.896Z,7.80
2022-09-24T03:56:07.929Z,7.80
2022-09-24T03:58:39.351Z,7.70
2022-09-24T04:01:08.058Z,7.70
2022-09-24T04:03:36.223Z,7.70
2022-09-24T04:06:04.537Z,7.70
2022-09-24T04:08:31.734Z,7.70
2022-09-24T04:10:58.906Z,7.70
2022-09-24T04:13:26.484Z,7.70
2022-09-24T04:15:55.432Z,7.70
2022-09-24T04:18:22.595Z,7.70
2022-09-24T04:20:49.677Z,7.70
2022-09-24T04:23:16.423Z,7.70
2022-09-24T04:25:44.897Z,7.60
2022-09-24T04:28:12.113Z,7.60
2022-09-24T04:30:39.787Z,7.50
2022-09-24T04:33:07.862Z,7.50
2022-09-24T04:35:36.810Z,7.50
2022-09-24T04:38:05.303Z,7.60
2022-09-24T04:40:33.387Z,7.60
2022-09-24T04:43:01.108Z,7.60
2022-09-24T04:45:27.864Z,7.60
2022-09-24T04:47:58.057Z,7.60
2022-09-24T04:50:27.348Z,7.60
2022-09-24T04:52:55.289Z,7.60
2022-09-24T04:55:23.712Z,7.60
2022-09-24T04:57:51.118Z,7.60
2022-09-24T05:00:20.939Z,7.60
2022-09-24T05:02:55.653Z,7.60
2022-09-24T05:05:23.335Z,7.60
2022-09-24T05:07:51.680Z,7.70
2022-09-24T05:10:19.330Z,7.70
2022-09-24T05:12:46.251Z,7.70
2022-09-24T05:15:13.422Z,7.70
2022-09-24T05:17:40.471Z,7.70
2022-09-24T05:20:09.189Z,7.80
2022-09-24T05:22:37.452Z,7.80
2022-09-24T05:25:05.230Z,7.80
2022-09-24T05:27:32.082Z,7.80
2022-09-24T05:30:00.261Z,7.80
2022-09-24T05:32:27.503Z,7.90
2022-09-24T05:34:54.435Z,7.90
2022-09-24T05:37:21.666Z,7.90
2022-09-24T05:39:48.343Z,8.00
2022-09-24T05:42:15.923Z,8.00
2022-09-24T05:44:49.791Z,8.00
2022-09-24T05:47:19.996Z,8.10
2022-09-24T05:49:47.171Z,8.10
2022-09-24T05:52:13.988Z,8.10
2022-09-24T05:54:41.263Z,8.10
2022-09-24T05:57:07.987Z,8.20
2022-09-24T05:59:35.649Z,8.20
2022-09-24T06:02:02.418Z,8.30
2022-09-24T06:04:30.264Z,8.30
2022-09-24T06:06:57.001Z,8.30
2022-09-24T06:09:24.216Z,8.30
2022-09-24T06:11:54.278Z,8.30
2022-09-24T06:14:21.120Z,8.40
2022-09-24T06:16:51.344Z,8.40
2022-09-24T06:19:18.617Z,8.50
2022-09-24T06:21:45.541Z,8.60
2022-09-24T06:24:12.237Z,8.60
2022-09-24T06:26:39.808Z,8.70
2022-09-24T06:29:07.046Z,8.70
2022-09-24T06:31:35.070Z,8.80
2022-09-24T06:34:03.215Z,8.80
2022-09-24T06:36:30.762Z,8.90
2022-09-24T06:38:59.091Z,9.00
2022-09-24T06:41:25.784Z,9.00
2022-09-24T06:43:57.290Z,9.00
2022-09-24T06:46:25.840Z,9.10
2022-09-24T06:48:54.985Z,9.10
2022-09-24T06:51:22.724Z,9.20
2022-09-24T06:53:52.832Z,9.20
2022-09-24T06:56:19.790Z,9.20
2022-09-24T06:58:46.928Z,9.30
2022-09-24T07:01:13.745Z,9.40
2022-09-24T07:03:41.192Z,9.50
2022-09-24T07:06:08.183Z,9.50
2022-09-24T07:08:35.697Z,9.60
2022-09-24T07:11:02.562Z,9.60
2022-09-24T07:13:29.442Z,9.60
2022-09-24T07:15:57.331Z,9.60
2022-09-24T07:18:24.120Z,9.60
2022-09-24T07:20:53.119Z,9.60
2022-09-24T07:23:20.283Z,9.70
2022-09-24T07:25:47.132Z,9.80
2022-09-24T07:28:20.027Z,9.90
2022-09-24T07:30:47.151Z,10.00
2022-09-24T07:33:14.070Z,10.10
2022-09-24T07:35:40.822Z,10.20
2022-09-24T07:38:14.470Z,10.40
2022-09-24T07:40:42.462Z,10.50
2022-09-24T07:43:13.849Z,10.60
2022-09-24T07:45:42.892Z,10.70
2022-09-24T07:48:10.820Z,10.80
2022-09-24T07:50:40.256Z,10.90
2022-09-24T07:53:07.958Z,11.00
2022-09-24T07:55:39.441Z,11.10
2022-09-24T07:58:14.218Z,11.20
2022-09-24T08:00:42.186Z,11.30
2022-09-24T08:03:09.008Z,11.50
2022-09-24T08:05:36.173Z,11.70
2022-09-24T08:08:03.412Z,11.80
2022-09-24T08:10:30.178Z,11.90
2022-09-24T08:13:02.366Z,12.10
2022-09-24T08:15:29.937Z,12.20
2022-09-24T08:18:04.950Z,12.30
2022-09-24T08:20:34.048Z,12.40
2022-09-24T08:23:06.788Z,12.50
2022-09-24T08:25:34.176Z,12.70
2022-09-24T08:28:05.527Z,12.80
2022-09-24T08:30:34.554Z,12.90
2022-09-24T08:33:01.744Z,13.10
2022-09-24T08:35:28.402Z,13.20
2022-09-24T08:37:56.076Z,13.30
2022-09-24T08:40:26.082Z,13.50
2022-09-24T08:43:07.851Z,13.60
2022-09-24T08:46:02.275Z,13.80
2022-09-24T08:48:34.866Z,14.00
2022-09-24T08:51:08.862Z,14.20
2022-09-24T08:54:03.326Z,14.40
2022-09-24T08:56:35.625Z,14.60
2022-09-24T08:59:37.677Z,14.80
2022-09-24T09:02:48.517Z,15.00
2022-09-24T09:06:04.329Z,15.10
2022-09-24T09:09:06.804Z,15.30
2022-09-24T09:11:36.678Z,15.60
2022-09-24T09:14:18.364Z,15.80
2022-09-24T09:16:56.051Z,16.00
2022-09-24T09:19:33.684Z,16.10
2022-09-24T09:22:15.304Z,16.30
2022-09-24T09:24:52.927Z,16.40
2022-09-24T09:27:21.867Z,16.60
2022-09-24T09:29:52.488Z,16.70
2022-09-24T09:32:35.890Z,16.80
2022-09-24T09:35:19.918Z,17.00
2022-09-24T09:38:06.106Z,17.10
2022-09-24T09:40:46.518Z,17.30
2022-09-24T09:43:15.017Z,17.40
2022-09-24T09:46:08.249Z,17.50
2022-09-24T09:48:45.818Z,17.60
2022-09-24T09:51:26.626Z,17.50
2022-09-24T09:54:03.877Z,17.60
2022-09-24T09:56:35.896Z,17.60
2022-09-24T09:59:10.537Z,17.70
2022-09-24T10:01:41.871Z,17.70
2022-09-24T10:04:45.083Z,17.80
2022-09-24T10:07:15.632Z,17.90
2022-09-24T10:09:44.107Z,17.90
2022-09-24T10:12:17.080Z,18.00
2022-09-24T10:14:45.064Z,18.10
2022-09-24T10:17:19.324Z,18.10
2022-09-24T10:19:47.878Z,18.20
2022-09-24T10:22:27.914Z,18.30
2022-09-24T10:24:56.957Z,18.50
2022-09-24T10:27:44.235Z,18.70
2022-09-24T10:30:33.690Z,18.60
2022-09-24T10:33:05.942Z,18.70
2022-09-24T10:35:39.111Z,18.70
2022-09-24T10:38:18.077Z,18.80
2022-09-24T10:40:45.998Z,19.00
2022-09-24T10:43:21.066Z,19.00
2022-09-24T10:46:01.766Z,19.00
2022-09-24T10:48:55.892Z,18.80
2022-09-24T10:51:46.558Z,18.80
2022-09-24T10:54:50.295Z,18.80
2022-09-24T10:57:31.246Z,18.80
2022-09-24T11:00:10.277Z,18.90
2022-09-24T11:02:55.981Z,19.00
2022-09-24T11:05:24.235Z,19.00
2022-09-24T11:08:08.670Z,19.00
2022-09-24T11:11:10.006Z,19.00
2022-09-24T11:13:57.635Z,19.10
2022-09-24T11:16:47.398Z,19.00
2022-09-24T11:19:25.996Z,19.00
2022-09-24T11:21:59.547Z,19.00
2022-09-24T11:24:46.707Z,19.00
2022-09-24T11:27:28.403Z,19.10
2022-09-24T11:30:10.746Z,19.10
2022-09-24T11:32:45.821Z,19.00
2022-09-24T11:35:47.379Z,18.90
2022-09-24T11:38:33.925Z,18.90
2022-09-24T11:41:30.446Z,18.90
2022-09-24T11:44:22.402Z,19.00
2022-09-24T11:47:26.463Z,19.00
2022-09-24T11:50:05.119Z,19.00
2022-09-24T11:52:45.499Z,18.90
2022-09-24T11:55:34.203Z,18.90
2022-09-24T11:58:27.807Z,18.80
2022-09-24T12:00:57.628Z,18.70
2022-09-24T12:03:44.811Z,18.70
2022-09-24T12:06:17.215Z,18.70
2022-09-24T12:08:54.589Z,18.70
2022-09-24T12:11:34.323Z,18.70
2022-09-24T12:14:15.447Z,18.70
2022-09-24T12:16:45.902Z,18.70
2022-09-24T12:19:36.756Z,18.70
2022-09-24T12:22:09.182Z,18.70
2022-09-24T12:24:58.683Z,18.70
2022-09-24T12:27:37.201Z,18.70
2022-09-24T12:30:49.539Z,18.70
2022-09-24T12:33:30.233Z,18.80
2022-09-24T12:36:07.320Z,18.80
2022-09-24T12:38:49.581Z,18.80
2022-09-24T12:41:25.724Z,18.80
2022-09-24T12:44:03.734Z,18.90
2022-09-24T12:46:43.824Z,18.90
2022-09-24T12:49:24.562Z,19.00
2022-09-24T12:51:57.459Z,19.10
2022-09-24T12:54:29.613Z,19.10
2022-09-24T12:57:21.310Z,19.10
2022-09-24T12:59:52.866Z,19.10
2022-09-24T13:02:43.526Z,19.10
2022-09-24T13:05:22.391Z,19.10
2022-09-24T13:08:02.047Z,19.10
2022-09-24T13:10:36.816Z,19.10
2022-09-24T13:13:22.500Z,19.20
2022-09-24T13:16:04.050Z,19.20
2022-09-24T13:18:34.126Z,19.10
2022-09-24T13:21:09.414Z,19.10
2022-09-24T13:23:36.065Z,19.10
2022-09-24T13:26:09.612Z,19.10
2022-09-24T13:28:48.590Z,19.10
2022-09-24T13:31:22.102Z,19.10
2022-09-24T13:33:54.068Z,19.10
2022-09-24T13:36:38.254Z,19.00
2022-09-24T13:39:15.588Z,19.10
2022-09-24T13:42:14.097Z,19.10
2022-09-24T13:44:43.541Z,19.10
2022-09-24T13:47:31.974Z,19.00
2022-09-24T13:50:15.727Z,19.10
2022-09-24T13:53:07.768Z,19.10
2022-09-24T13:55:55.611Z,19.20
2022-09-24T13:58:27.933Z,19.20
2022-09-24T14:00:55.962Z,19.20
2022-09-24T14:03:28.602Z,19.20
2022-09-24T14:05:57.492Z,19.20
2022-09-24T14:08:27.496Z,19.20
2022-09-24T14:11:15.356Z,19.10
2022-09-24T14:13:48.139Z,19.10
2022-09-24T14:16:16.212Z,19.10
2022-09-24T14:18:43.861Z,19.10
2022-09-24T14:21:30.381Z,19.10
2022-09-24T14:24:09.372Z,19.10
2022-09-24T14:26:57.435Z,19.00
2022-09-24T14:29:48.846Z,19.00
2022-09-24T14:32:26.888Z,18.90
2022-09-24T14:34:57.310Z,18.90
2022-09-24T14:37:35.597Z,18.90
2022-09-24T14:40:23.901Z,18.90
2022-09-24T14:42:58.444Z,18.90
2022-09-24T14:45:37.691Z,18.90
2022-09-24T14:48:31.264Z,18.90
2022-09-24T14:50:58.446Z,18.90
2022-09-24T14:53:30.942Z,18.90
2022-09-24T14:55:58.249Z,18.90
2022-09-24T14:58:31.712Z,18.90
2022-09-24T15:01:01.801Z,18.90
2022-09-24T15:03:36.456Z,18.80
2022-09-24T15:06:17.952Z,18.80
2022-09-24T15:09:02.979Z,18.80
2022-09-24T15:11:34.214Z,18.80
2022-09-24T15:14:27.823Z,18.80
2022-09-24T15:16:55.349Z,18.70
2022-09-24T15:19:28.897Z,18.60
2022-09-24T15:21:57.373Z,18.60
2022-09-24T15:24:25.206Z,18.60
2022-09-24T15:27:04.931Z,18.60
2022-09-24T15:29:32.711Z,18.60
2022-09-24T15:32:00.108Z,18.60
2022-09-24T15:34:28.467Z,18.60
2022-09-24T15:37:02.174Z,18.70
2022-09-24T15:39:30.428Z,18.70
2022-09-24T15:41:57.480Z,18.60
2022-09-24T15:44:31.264Z,18.60
2022-09-24T15:47:00.187Z,18.60
2022-09-24T15:49:27.747Z,18.60
2022-09-24T15:52:01.651Z,18.60
2022-09-24T15:54:29.317Z,18.50
2022-09-24T16:00:23.342Z,18.50
2022-09-24T16:03:01.164Z,18.40
2022-09-24T16:05:28.687Z,18.20
2022-09-24T16:07:55.810Z,18.10
2022-09-24T16:10:23.166Z,17.90
2022-09-24T16:12:50.022Z,17.80
2022-09-24T16:15:16.974Z,17.60
2022-09-24T16:17:44.144Z,17.50
2022-09-24T16:20:11.515Z,17.40
2022-09-24T16:22:38.936Z,17.30
2022-09-24T16:25:06.597Z,17.30
2022-09-24T16:27:35.335Z,17.20
2022-09-24T16:30:22.425Z,17.00
2022-09-24T16:32:49.897Z,17.00
2022-09-24T16:35:17.512Z,16.90
2022-09-24T16:37:44.787Z,16.80
2022-09-24T16:40:12.346Z,16.70
2022-09-24T16:42:39.622Z,16.60
2022-09-24T16:45:07.493Z,16.50
2022-09-24T16:47:35.024Z,16.40
2022-09-24T16:50:02.307Z,16.40
2022-09-24T16:52:32.337Z,16.30
2022-09-24T16:54:59.055Z,16.30
2022-09-24T16:57:26.580Z,16.20
2022-09-24T16:59:53.940Z,16.10
2022-09-24T17:02:21.143Z,16.10
2022-09-24T17:04:48.037Z,16.00
2022-09-24T17:07:15.391Z,15.90
2022-09-24T17:10:01.279Z,15.90
2022-09-24T17:12:28.223Z,15.90
2022-09-24T17:14:57.128Z,15.80
2022-09-24T17:17:24.208Z,15.80
2022-09-24T17:19:51.394Z,15.80
2022-09-24T17:22:18.276Z,15.80
2022-09-24T17:24:45.137Z,15.70
2022-09-24T17:27:12.693Z,15.60
2022-09-24T17:29:39.558Z,15.60
2022-09-24T17:32:07.053Z,15.60
2022-09-24T17:34:34.177Z,15.60
2022-09-24T17:37:01.080Z,15.50
2022-09-24T17:39:28.446Z,15.40
2022-09-24T17:41:55.300Z,15.40
2022-09-24T17:44:22.561Z,15.30
2022-09-24T17:46:49.553Z,15.30
2022-09-24T17:49:16.833Z,15.30
2022-09-24T17:51:46.357Z,15.30
2022-09-24T17:54:16.019Z,15.20
2022-09-24T17:56:42.994Z,15.20
2022-09-24T17:59:12.081Z,15.10
2022-09-24T18:01:40.561Z,15.10
2022-09-24T18:04:20.567Z,15.10
2022-09-24T18:06:49.273Z,15.10
2022-09-24T18:09:18.520Z,15.10
2022-09-24T18:11:48.963Z,15.00
2022-09-24T18:14:20.835Z,15.00
2022-09-24T18:16:49.457Z,15.10
2022-09-24T18:19:18.005Z,15.00
2022-09-24T18:21:46.002Z,15.00
2022-09-24T18:24:13.267Z,15.00
2022-09-24T18:26:40.990Z,15.00
2022-09-24T18:29:13.038Z,14.90
2022-09-24T18:31:41.312Z,14.90
2022-09-24T18:34:09.537Z,14.90
2022-09-24T18:36:39.345Z,14.80
2022-09-24T18:39:09.160Z,14.80
2022-09-24T18:41:37.001Z,14.70
2022-09-24T18:44:04.791Z,14.70
2022-09-24T18:46:33.504Z,14.60
2022-09-24T18:49:02.143Z,14.60
2022-09-24T18:51:35.525Z,14.60
2022-09-24T18:54:03.718Z,14.60
2022-09-24T18:56:32.100Z,14.60
2022-09-24T18:59:09.913Z,14.50
2022-09-24T19:01:38.079Z,14.50
2022-09-24T19:04:06.492Z,14.40
2022-09-24T19:06:35.878Z,14.50
2022-09-24T19:09:04.911Z,14.40
2022-09-24T19:11:32.637Z,14.40
2022-09-24T19:14:03.081Z,14.30
2022-09-24T19:16:30.725Z,14.30
2022-09-24T19:18:59.747Z,14.30
2022-09-24T19:21:27.257Z,14.30
2022-09-24T19:23:56.726Z,14.30
2022-09-24T19:26:30.336Z,14.30
2022-09-24T19:28:58.745Z,14.30
2022-09-24T19:31:27.339Z,14.20
2022-09-24T19:33:54.582Z,14.20
2022-09-24T19:36:22.470Z,14.10
2022-09-24T19:38:50.686Z,14.00
2022-09-24T19:41:21.618Z,14.00
2022-09-24T19:43:51.411Z,13.90
2022-09-24T19:46:20.855Z,13.90
2022-09-24T19:48:49.784Z,13.90
2022-09-24T19:51:22.472Z,13.90
2022-09-24T19:53:51.180Z,13.90
2022-09-24T19:56:21.188Z,13.80
2022-09-24T19:58:49.885Z,13.70
2022-09-24T20:01:20.281Z,13.60
2022-09-24T20:03:48.035Z,13.60
2022-09-24T20:06:18.677Z,13.50
2022-09-24T20:08:47.179Z,13.50
2022-09-24T20:11:21.084Z,13.50
2022-09-24T20:13:49.563Z,13.40
2022-09-24T20:16:20.012Z,13.30
2022-09-24T20:18:52.377Z,13.30
2022-09-24T20:21:19.925Z,13.30
2022-09-24T20:23:48.511Z,13.20
2022-09-24T20:26:35.844Z,13.20
2022-09-24T20:29:03.315Z,13.20
2022-09-24T20:34:16.134Z,13.00
2022-09-24T20:36:43.351Z,13.00
2022-09-24T20:39:10.634Z,12.90
2022-09-24T20:41:37.476Z,12.90
2022-09-24T20:44:04.447Z,12.90
2022-09-24T20:46:31.977Z,12.90
2022-09-24T20:49:00.063Z,12.90
2022-09-24T20:51:33.722Z,12.80
2022-09-24T20:54:01.652Z,12.70
2022-09-24T20:56:30.880Z,12.70
2022-09-24T20:58:59.072Z,12.70
2022-09-24T21:01:26.444Z,12.70
2022-09-24T21:03:53.486Z,12.70
2022-09-24T21:06:23.594Z,12.60
2022-09-24T21:08:52.425Z,12.60
2022-09-24T21:11:22.333Z,12.60
2022-09-24T21:13:51.810Z,12.60
2022-09-24T21:16:21.673Z,12.60
2022-09-24T21:18:50.529Z,12.60
2022-09-24T21:21:19.746Z,12.60
2022-09-24T21:23:49.403Z,12.60
2022-09-24T21:26:34.227Z,12.50
2022-09-24T21:29:01.684Z,12.50
2022-09-24T21:31:31.624Z,12.40
2022-09-24T21:34:00.005Z,12.40
2022-09-24T21:36:29.758Z,12.40
2022-09-24T21:39:03.815Z,12.40
2022-09-24T21:41:33.414Z,12.30
2022-09-24T21:44:01.040Z,12.20
2022-09-24T21:46:31.763Z,12.20
2022-09-24T21:48:59.897Z,12.20
2022-09-24T21:51:30.444Z,12.10
2022-09-24T21:54:03.261Z,12.10
2022-09-24T21:56:32.318Z,12.00
2022-09-24T21:59:00.542Z,11.90
2022-09-24T22:01:34.079Z,11.90
2022-09-24T22:04:09.441Z,11.90
2022-09-24T22:06:36.370Z,11.90
2022-09-24T22:09:06.156Z,11.90
2022-09-24T22:11:34.872Z,11.80
2022-09-24T22:14:02.582Z,11.80
2022-09-24T22:16:31.682Z,11.70
2022-09-24T22:18:58.941Z,11.60
2022-09-24T22:21:25.933Z,11.60
2022-09-24T22:23:54.828Z,11.60
2022-09-24T22:26:22.733Z,11.50
2022-09-24T22:28:50.460Z,11.50
2022-09-24T22:31:19.244Z,11.40
2022-09-24T22:34:05.278Z,11.40
2022-09-24T22:36:33.848Z,11.30
2022-09-24T22:39:02.518Z,11.30
2022-09-24T22:41:30.311Z,11.20
2022-09-24T22:43:57.822Z,11.20
2022-09-24T22:46:27.890Z,11.10
2022-09-24T22:48:56.443Z,11.10
2022-09-24T22:51:26.948Z,11.10
2022-09-24T22:53:54.973Z,11.10
2022-09-24T22:56:24.665Z,11.00
2022-09-24T22:58:58.180Z,11.00
2022-09-24T23:01:28.544Z,11.00
2022-09-24T23:03:57.121Z,10.90
2022-09-24T23:06:25.349Z,10.90
2022-09-24T23:08:53.728Z,11.00
2022-09-24T23:11:30.401Z,11.00
2022-09-24T23:14:03.771Z,11.00
2022-09-24T23:16:34.992Z,11.00
2022-09-24T23:19:05.988Z,11.00
2022-09-24T23:21:34.628Z,11.00
2022-09-24T23:24:07.667Z,11.00
2022-09-24T23:26:35.035Z,11.00
2022-09-24T23:29:02.202Z,11.00
2022-09-24T23:31:33.321Z,11.00
2022-09-24T23:34:01.897Z,11.00
2022-09-24T23:36:31.343Z,10.90
2022-09-24T23:39:00.715Z,10.90
2022-09-24T23:41:29.178Z,10.90
2022-09-24T23:43:56.744Z,10.90
2022-09-24T23:46:24.184Z,10.90
2022-09-24T23:48:51.482Z,10.90
2022-09-24T23:51:18.825Z,10.90
2022-09-24T23:53:45.677Z,10.90
2022-09-24T23:56:14.149Z,10.90
2022-09-24T23:58:42.153Z,10.90
